Time;durP1;ratioP1;P1;durP2;ratioP2;P2;SDS_P1;SDS_P2;PMS_P1;PMS_P2;Temp;Humidity;BMP_temperature;BMP_pressure;BME280_temperature;BME280_humidity;BME280_pressure;Samples;Min_cycle;Max_cycle;Signal;HPM_P1;HPM_P2
2023/05/01 00:02:13;;;;;;;13.97;7.50;;;10.50;99.90;;;;;;4954403;29;20405;-54
2023/05/01 00:04:38;;;;;;;15.32;8.10;;;10.50;99.90;;;;;;4954716;29;20394;-54
2023/05/01 00:07:04;;;;;;;15.97;7.97;;;10.60;99.90;;;;;;4954830;29;20413;-54
2023/05/01 00:09:31;;;;;;;14.00;7.20;;;10.50;99.90;;;;;;4954022;29;20902;-54
2023/05/01 00:11:56;;;;;;;13.38;6.90;;;10.50;99.90;;;;;;4953795;29;20409;-54
2023/05/01 00:14:22;;;;;;;14.30;6.83;;;10.50;1.00;;;;;;4954327;29;20388;-54
2023/05/01 00:16:47;;;;;;;13.70;7.15;;;10.60;1.00;;;;;;4955114;29;20819;-54
2023/05/01 00:19:17;;;;;;;12.87;6.87;;;10.50;1.00;;;;;;4954144;29;20834;-54
2023/05/01 00:21:44;;;;;;;14.80;7.90;;;10.40;99.90;;;;;;4954794;29;20427;-54
2023/05/01 00:24:10;;;;;;;14.98;7.38;;;10.40;1.00;;;;;;4954805;29;20864;-54
2023/05/01 00:26:35;;;;;;;14.40;7.37;;;10.30;1.00;;;;;;4954414;29;20386;-54
2023/05/01 00:29:01;;;;;;;13.73;7.30;;;10.20;99.90;;;;;;4963711;28;20842;-54
2023/05/01 00:31:27;;;;;;;13.30;6.90;;;10.20;99.90;;;;;;4973352;28;20400;-54
2023/05/01 00:33:53;;;;;;;14.45;7.60;;;10.10;1.00;;;;;;4973406;28;20443;-53
2023/05/01 00:36:19;;;;;;;14.18;7.20;;;10.20;1.00;;;;;;4972448;28;20834;-54
2023/05/01 00:38:45;;;;;;;14.27;7.30;;;10.20;99.90;;;;;;4973615;28;20486;-53
2023/05/01 00:41:11;;;;;;;14.15;7.53;;;10.10;99.90;;;;;;4973154;28;20398;-54
2023/05/01 00:43:36;;;;;;;13.07;7.43;;;10.00;99.90;;;;;;4972956;28;20886;-54
2023/05/01 00:46:02;;;;;;;14.38;7.28;;;10.00;99.90;;;;;;4973356;28;20458;-54
2023/05/01 00:48:28;;;;;;;14.75;7.05;;;10.00;99.90;;;;;;4972047;28;20408;-54
2023/05/01 00:50:55;;;;;;;14.93;7.57;;;10.10;99.90;;;;;;4973614;28;20429;-54
2023/05/01 00:53:23;;;;;;;16.13;7.57;;;10.10;99.90;;;;;;4972068;28;20393;-54
2023/05/01 00:55:49;;;;;;;14.03;6.87;;;10.10;1.00;;;;;;4972778;28;20392;-54
2023/05/01 00:58:17;;;;;;;15.07;7.45;;;10.00;99.90;;;;;;4970787;28;20420;-54
2023/05/01 01:00:43;;;;;;;14.73;7.73;;;10.00;1.00;;;;;;4973445;28;20450;-54
2023/05/01 01:03:10;;;;;;;12.57;7.05;;;10.00;1.00;;;;;;4963751;28;20400;-54
2023/05/01 01:05:41;;;;;;;12.05;6.65;;;10.10;1.00;;;;;;4972752;28;20403;-54
2023/05/01 01:08:25;;;;;;;14.00;6.78;;;10.00;1.00;;;;;;4973012;28;20459;-54
2023/05/01 01:11:07;;;;;;;13.95;6.90;;;10.00;1.00;;;;;;4952930;28;20396;-54
2023/05/01 01:13:45;;;;;;;13.50;6.90;;;10.00;99.90;;;;;;4957442;28;20795;-54
2023/05/01 01:16:44;;;;;;;15.65;7.38;;;10.00;99.90;;;;;;4972243;28;20470;-55
2023/05/01 01:19:48;;;;;;;13.95;7.35;;;10.00;91.10;;;;;;4969898;28;20487;-54
2023/05/01 01:22:19;;;;;;;13.87;6.90;;;10.00;1.00;;;;;;4971740;28;20396;-54
2023/05/01 01:25:19;;;;;;;15.45;7.90;;;10.10;1.00;;;;;;4972619;28;20551;-54
2023/05/01 01:28:05;;;;;;;14.90;7.68;;;10.20;1.00;;;;;;4972257;28;20755;-54
2023/05/01 01:30:39;;;;;;;12.90;7.35;;;10.20;99.90;;;;;;4971443;28;20561;-54
2023/05/01 01:33:23;;;;;;;13.43;7.70;;;11.60;99.90;;;;;;4972889;28;20400;-54
2023/05/01 01:35:56;;;;;;;13.85;7.50;;;10.30;76.10;;;;;;4971890;28;20411;-54
2023/05/01 01:38:29;;;;;;;13.70;6.60;;;10.30;1.00;;;;;;4968384;28;20822;-54
2023/05/01 01:41:06;;;;;;;14.63;7.68;;;10.30;1.00;;;;;;4971355;28;20464;-54
2023/05/01 01:43:41;;;;;;;14.05;7.30;;;10.30;1.00;;;;;;4971802;28;20405;-53
2023/05/01 01:46:09;;;;;;;12.40;6.77;;;10.30;83.00;;;;;;4972589;28;20487;-54
2023/05/01 01:48:40;;;;;;;13.07;7.00;;;10.20;99.90;;;;;;4971404;28;20412;-54
2023/05/01 01:51:11;;;;;;;13.35;6.70;;;10.20;1.00;;;;;;4972416;28;20439;-54
2023/05/01 01:53:39;;;;;;;13.70;7.25;;;10.00;7.20;;;;;;4971505;28;20432;-54
2023/05/01 01:56:06;;;;;;;16.58;7.97;;;10.00;99.90;;;;;;4972459;28;20400;-54
2023/05/01 01:58:35;;;;;;;14.60;7.13;;;10.00;99.90;;;;;;4970892;28;20408;-54
2023/05/01 02:01:02;;;;;;;16.63;7.73;;;9.90;99.90;;;;;;4971877;28;20401;-54
2023/05/01 02:03:29;;;;;;;14.02;7.30;;;10.00;99.90;;;;;;4971892;28;20415;-54
2023/05/01 02:05:56;;;;;;;16.17;7.82;;;10.00;1.00;;;;;;4971986;28;20396;-54
2023/05/01 02:08:23;;;;;;;14.27;7.47;;;10.10;1.00;;;;;;4970539;28;20774;-54
2023/05/01 02:10:49;;;;;;;13.63;7.50;;;10.20;99.90;;;;;;4965523;28;20407;-54
2023/05/01 02:13:16;;;;;;;15.00;7.68;;;10.20;90.00;;;;;;4971213;28;20748;-54
2023/05/01 02:15:44;;;;;;;14.80;7.37;;;10.30;18.90;;;;;;4972448;28;20388;-54
2023/05/01 02:18:11;;;;;;;14.40;7.10;;;10.40;1.00;;;;;;4971953;28;20447;-54
2023/05/01 02:20:37;;;;;;;12.27;6.75;;;10.50;99.90;;;;;;4971794;28;20376;-54
2023/05/01 02:23:06;;;;;;;14.27;7.10;;;10.40;99.90;;;;;;4971988;28;20403;-53
2023/05/01 02:25:35;;;;;;;13.70;6.97;;;10.40;1.00;;;;;;4965389;28;20398;-54
2023/05/01 02:28:09;;;;;;;13.23;6.78;;;10.40;1.00;;;;;;4954948;28;20580;-54
2023/05/01 02:30:35;;;;;;;13.80;7.28;;;10.40;99.90;;;;;;4970589;28;20412;-54
2023/05/01 02:33:01;;;;;;;15.65;7.43;;;9.40;28.50;;;;;;4971072;28;20412;-54
2023/05/01 02:35:26;;;;;;;14.80;7.33;;;10.40;5.60;;;;;;4970700;28;20484;-54
2023/05/01 02:37:52;;;;;;;14.93;8.00;;;10.40;18.60;;;;;;4971040;28;20428;-53
2023/05/01 02:40:17;;;;;;;15.70;7.35;;;10.50;1.00;;;;;;4970587;28;20739;-54
2023/05/01 02:42:44;;;;;;;14.30;6.83;;;10.60;99.90;;;;;;4970529;28;20398;-54
2023/05/01 02:45:18;;;;;;;14.05;7.57;;;10.60;99.90;;;;;;4971486;28;20400;-54
2023/05/01 02:47:47;;;;;;;16.73;7.50;;;10.50;1.00;;;;;;4970937;28;20396;-54
2023/05/01 02:50:14;;;;;;;14.98;7.60;;;10.50;1.00;;;;;;4970645;28;20429;-54
2023/05/01 02:52:39;;;;;;;14.05;7.13;;;10.60;14.10;;;;;;4971250;28;20455;-54
2023/05/01 02:55:07;;;;;;;13.63;6.80;;;10.60;1.00;;;;;;4971228;28;20396;-53
2023/05/01 02:57:33;;;;;;;15.20;8.00;;;10.60;99.90;;;;;;4970017;28;20439;-54
2023/05/01 02:59:58;;;;;;;13.88;7.53;;;10.50;1.00;;;;;;4970760;28;20423;-54
2023/05/01 03:02:24;;;;;;;11.88;6.60;;;10.60;1.00;;;;;;4970046;28;20958;-54
2023/05/01 03:04:50;;;;;;;13.10;7.33;;;10.60;1.00;;;;;;4963571;28;20411;-54
2023/05/01 03:07:16;;;;;;;14.25;6.75;;;10.60;1.00;;;;;;4970252;28;20491;-54
2023/05/01 03:09:41;;;;;;;15.93;7.30;;;10.70;1.00;;;;;;4970035;28;20443;-54
2023/05/01 03:12:07;;;;;;;19.67;7.55;;;10.80;1.00;;;;;;4970561;28;20432;-54
2023/05/01 03:14:33;;;;;;;16.40;7.70;;;10.80;99.90;;;;;;4952714;28;20474;-54
2023/05/01 03:16:59;;;;;;;13.65;6.93;;;10.70;1.00;;;;;;4970566;28;20420;-54
2023/05/01 03:19:24;;;;;;;14.17;6.90;;;10.60;99.90;;;;;;4969712;28;20404;-54
2023/05/01 03:21:50;;;;;;;15.13;7.40;;;10.60;99.90;;;;;;4969830;28;20436;-54
2023/05/01 03:24:15;;;;;;;14.60;7.20;;;10.70;99.90;;;;;;4969958;28;20403;-54
2023/05/01 03:26:41;;;;;;;14.10;7.50;;;10.70;99.90;;;;;;4970388;28;20823;-54
2023/05/01 03:29:07;;;;;;;15.40;7.40;;;10.80;99.90;;;;;;4970428;28;20420;-54
2023/05/01 03:31:33;;;;;;;14.98;7.70;;;10.70;99.90;;;;;;4969389;28;20578;-54
2023/05/01 03:33:58;;;;;;;16.17;8.50;;;10.70;99.90;;;;;;4970158;28;20415;-54
2023/05/01 03:36:24;;;;;;;12.67;7.20;;;10.70;99.90;;;;;;4969694;28;20426;-54
2023/05/01 03:38:50;;;;;;;15.57;7.60;;;10.90;29.50;;;;;;4970362;28;20400;-54
2023/05/01 03:41:16;;;;;;;14.30;7.45;;;11.10;99.90;;;;;;4969575;28;20416;-54
2023/05/01 03:43:42;;;;;;;13.45;6.80;;;11.10;99.90;;;;;;4970417;28;20403;-54
2023/05/01 03:46:07;;;;;;;14.07;7.27;;;11.10;99.90;;;;;;4970583;28;20751;-54
2023/05/01 03:48:33;;;;;;;15.73;7.70;;;11.00;1.00;;;;;;4969462;28;20690;-54
2023/05/01 03:50:59;;;;;;;16.38;7.63;;;11.00;99.90;;;;;;4970318;28;20440;-54
2023/05/01 03:53:24;;;;;;;14.20;7.33;;;10.90;99.90;;;;;;4969861;28;20892;-54
2023/05/01 03:55:50;;;;;;;14.05;7.63;;;10.80;1.00;;;;;;4970086;28;20866;-54
2023/05/01 03:58:16;;;;;;;14.93;7.60;;;10.70;37.50;;;;;;4969217;28;20424;-55
2023/05/01 04:00:41;;;;;;;12.90;6.90;;;9.90;1.00;;;;;;4970535;28;20984;-53
2023/05/01 04:03:07;;;;;;;15.15;7.28;;;10.50;38.50;;;;;;4969838;28;20396;-53
2023/05/01 04:05:33;;;;;;;15.45;7.47;;;10.50;99.90;;;;;;4969490;28;20397;-54
2023/05/01 04:07:58;;;;;;;13.45;6.95;;;10.50;99.90;;;;;;4970098;28;20491;-54
2023/05/01 04:10:24;;;;;;;13.27;6.90;;;10.50;1.00;;;;;;4969522;28;20397;-54
2023/05/01 04:12:50;;;;;;;14.13;7.15;;;10.50;99.90;;;;;;4970654;28;20392;-53
2023/05/01 04:15:16;;;;;;;13.00;7.10;;;10.50;1.00;;;;;;4959460;28;20398;-54
2023/05/01 04:17:45;;;;;;;16.42;7.78;;;10.60;99.90;;;;;;4951256;29;20915;-54
2023/05/01 04:20:11;;;;;;;14.00;7.43;;;10.60;99.90;;;;;;4951266;29;20406;-53
2023/05/01 04:22:37;;;;;;;14.35;7.40;;;10.60;99.90;;;;;;4950454;29;20496;-53
2023/05/01 04:25:03;;;;;;;13.13;7.30;;;10.60;99.90;;;;;;4951226;29;20426;-53
2023/05/01 04:27:29;;;;;;;15.07;7.90;;;10.50;16.50;;;;;;4960667;28;20916;-54
2023/05/01 04:29:55;;;;;;;12.50;6.47;;;10.40;99.90;;;;;;4969812;28;20491;-54
2023/05/01 04:32:21;;;;;;;14.50;7.57;;;10.40;99.90;;;;;;4970615;28;20423;-54
2023/05/01 04:34:46;;;;;;;13.70;7.80;;;10.40;99.90;;;;;;4973394;28;20443;-53
2023/05/01 04:37:13;;;;;;;14.00;6.80;;;10.40;99.90;;;;;;4973696;28;20431;-54
2023/05/01 04:39:38;;;;;;;13.95;7.40;;;10.40;99.90;;;;;;4972802;28;20404;-54
2023/05/01 04:42:04;;;;;;;14.10;7.17;;;10.40;1.00;;;;;;4973492;28;20407;-54
2023/05/01 04:44:32;;;;;;;13.30;6.88;;;10.40;1.00;;;;;;4972609;28;20411;-54
2023/05/01 04:47:00;;;;;;;12.93;7.10;;;10.50;1.00;;;;;;4973384;28;20400;-53
2023/05/01 04:49:25;;;;;;;13.70;7.10;;;10.70;1.00;;;;;;4972479;28;20735;-54
2023/05/01 04:51:51;;;;;;;17.90;7.70;;;10.80;1.00;;;;;;4973533;28;20483;-54
2023/05/01 04:54:17;;;;;;;13.63;6.93;;;10.70;99.90;;;;;;4972758;28;20765;-54
2023/05/01 04:56:42;;;;;;;14.70;6.90;;;10.80;99.90;;;;;;4973227;28;20407;-54
2023/05/01 04:59:08;;;;;;;13.98;7.22;;;10.90;1.00;;;;;;4972825;28;20491;-54
2023/05/01 05:01:35;;;;;;;13.17;7.40;;;11.10;99.90;;;;;;4972097;28;20407;-54
2023/05/01 05:04:00;;;;;;;16.80;8.20;;;11.10;99.90;;;;;;4973413;28;20491;-54
2023/05/01 05:06:26;;;;;;;14.77;7.40;;;11.10;99.90;;;;;;4972083;28;20508;-54
2023/05/01 05:08:52;;;;;;;15.40;7.50;;;11.30;50.20;;;;;;4972664;28;20396;-54
2023/05/01 05:11:18;;;;;;;14.70;8.00;;;11.40;1.00;;;;;;4972008;28;20898;-54
2023/05/01 05:13:44;;;;;;;13.98;7.38;;;11.40;12.70;;;;;;4972972;28;20809;-54
2023/05/01 05:16:10;;;;;;;15.93;7.00;;;11.50;1.00;;;;;;4972525;28;20404;-54
2023/05/01 05:18:37;;;;;;;14.10;7.35;;;11.60;99.90;;;;;;4972143;28;20412;-54
2023/05/01 05:21:04;;;;;;;14.05;7.28;;;11.80;1.00;;;;;;4972603;28;20412;-54
2023/05/01 05:23:30;;;;;;;17.85;7.97;;;11.80;99.90;;;;;;4971612;28;20416;-54
2023/05/01 05:25:57;;;;;;;13.80;7.60;;;11.80;44.50;;;;;;4972570;28;20403;-54
2023/05/01 05:28:22;;;;;;;15.45;8.00;;;11.80;1.00;;;;;;4971676;28;20420;-54
2023/05/01 05:30:48;;;;;;;16.20;7.40;;;11.90;1.00;;;;;;4972077;28;20415;-54
2023/05/01 05:33:14;;;;;;;13.40;7.40;;;11.80;1.00;;;;;;4972633;28;20469;-54
2023/05/01 05:35:39;;;;;;;13.45;7.20;;;11.80;1.00;;;;;;4971909;28;20432;-54
2023/05/01 05:38:05;;;;;;;13.87;7.60;;;11.80;1.00;;;;;;4971895;28;20491;-54
2023/05/01 05:40:31;;;;;;;13.93;7.20;;;11.80;1.00;;;;;;4972170;28;20482;-54
2023/05/01 05:42:56;;;;;;;14.03;7.50;;;12.00;1.00;;;;;;4972243;28;20389;-54
2023/05/01 05:45:22;;;;;;;14.30;7.60;;;12.00;1.00;;;;;;4970886;28;20898;-55
2023/05/01 05:47:48;;;;;;;14.88;8.07;;;11.90;1.00;;;;;;4972144;28;20403;-54
2023/05/01 05:50:13;;;;;;;15.07;8.00;;;11.90;1.00;;;;;;4972025;28;20396;-54
2023/05/01 05:52:39;;;;;;;17.63;8.25;;;11.80;1.00;;;;;;4971327;28;20766;-54
2023/05/01 05:55:05;;;;;;;14.53;7.77;;;11.80;99.90;;;;;;4971984;28;20730;-54
2023/05/01 05:57:31;;;;;;;13.63;7.50;;;11.70;99.90;;;;;;4971347;28;20451;-55
2023/05/01 05:59:57;;;;;;;14.87;7.93;;;11.70;99.90;;;;;;4971763;28;20412;-54
2023/05/01 06:02:22;;;;;;;15.52;7.47;;;11.70;99.90;;;;;;4971327;28;20506;-54
2023/05/01 06:04:48;;;;;;;14.37;7.40;;;11.70;1.00;;;;;;4965609;28;20422;-54
2023/05/01 06:07:14;;;;;;;12.18;7.00;;;11.70;1.00;;;;;;4968141;28;20773;-54
2023/05/01 06:09:39;;;;;;;14.60;7.70;;;11.70;1.00;;;;;;4965054;28;20417;-54
2023/05/01 06:12:05;;;;;;;15.32;6.90;;;11.70;1.00;;;;;;4966005;28;20471;-54
2023/05/01 06:14:31;;;;;;;15.17;6.77;;;11.80;99.90;;;;;;4961056;28;20394;-54
2023/05/01 06:16:56;;;;;;;13.32;7.07;;;11.80;99.90;;;;;;4972048;28;20770;-54
2023/05/01 06:19:22;;;;;;;11.17;5.73;;;11.90;26.40;;;;;;4971401;28;20424;-54
2023/05/01 06:21:48;;;;;;;13.43;7.03;;;11.90;1.00;;;;;;4969880;28;20870;-54
2023/05/01 06:24:14;;;;;;;12.70;6.75;;;12.00;99.90;;;;;;4952843;29;20409;-54
2023/05/01 06:26:40;;;;;;;11.60;6.40;;;12.10;1.00;;;;;;4953187;28;20405;-54
2023/05/01 06:29:05;;;;;;;12.60;6.63;;;12.10;99.90;;;;;;4964451;28;20804;-54
2023/05/01 06:31:31;;;;;;;13.57;7.28;;;12.10;99.90;;;;;;4965767;28;20404;-54
2023/05/01 06:33:57;;;;;;;12.50;7.13;;;12.10;1.00;;;;;;4967858;28;20396;-54
2023/05/01 06:36:22;;;;;;;10.77;5.70;;;12.20;1.00;;;;;;4958327;28;20432;-54
2023/05/01 06:38:48;;;;;;;13.43;6.90;;;12.30;5.50;;;;;;4970085;28;20419;-54
2023/05/01 06:41:16;;;;;;;12.10;6.20;;;12.30;1.00;;;;;;4971328;28;20396;-54
2023/05/01 06:43:42;;;;;;;13.43;7.20;;;12.40;1.00;;;;;;4968321;28;20811;-54
2023/05/01 06:46:08;;;;;;;11.82;5.70;;;12.20;99.90;;;;;;4964579;28;20388;-54
2023/05/01 06:48:33;;;;;;;14.50;8.00;;;12.40;1.00;;;;;;4959951;28;20402;-54
2023/05/01 06:50:59;;;;;;;14.52;7.38;;;12.50;99.90;;;;;;4968307;28;20416;-54
2023/05/01 06:53:25;;;;;;;15.10;7.70;;;12.60;99.90;;;;;;4969448;28;20546;-54
2023/05/01 06:55:50;;;;;;;13.95;7.30;;;12.80;99.90;;;;;;4962658;28;20462;-54
2023/05/01 06:58:16;;;;;;;11.40;6.15;;;13.00;1.00;;;;;;4970096;28;20446;-54
2023/05/01 07:00:41;;;;;;;11.97;5.80;;;13.10;99.90;;;;;;4969753;28;20886;-54
2023/05/01 07:03:07;;;;;;;11.90;6.10;;;13.20;99.90;;;;;;4969444;28;20404;-54
2023/05/01 07:05:32;;;;;;;12.88;6.38;;;13.10;99.90;;;;;;4968360;28;20389;-54
2023/05/01 07:08:00;;;;;;;13.50;6.50;;;13.10;99.90;;;;;;4952532;28;20462;-54
2023/05/01 07:10:25;;;;;;;12.70;5.60;;;13.30;99.90;;;;;;4969852;28;20780;-54
2023/05/01 07:12:51;;;;;;;11.77;6.17;;;13.20;99.90;;;;;;4969556;28;20515;-54
2023/05/01 07:15:17;;;;;;;12.80;6.13;;;13.30;99.90;;;;;;4959131;28;20410;-54
2023/05/01 07:17:42;;;;;;;10.68;5.22;;;13.40;99.90;;;;;;4958474;28;20572;-54
2023/05/01 07:20:09;;;;;;;11.73;5.20;;;13.50;99.90;;;;;;4950911;29;20402;-54
2023/05/01 07:22:35;;;;;;;11.93;5.57;;;13.50;31.30;;;;;;4964658;28;20431;-54
2023/05/01 07:25:02;;;;;;;11.00;5.57;;;13.40;37.80;;;;;;4969876;28;20882;-54
2023/05/01 07:27:27;;;;;;;12.95;5.78;;;13.70;27.60;;;;;;4966557;28;20464;-54
2023/05/01 07:29:55;;;;;;;11.32;5.80;;;13.70;1.00;;;;;;4960020;28;20393;-54
2023/05/01 07:32:21;;;;;;;11.50;5.72;;;13.70;1.00;;;;;;4960943;28;20396;-54
2023/05/01 07:34:46;;;;;;;11.77;5.50;;;13.80;1.00;;;;;;4970566;28;20474;-54
2023/05/01 07:37:12;;;;;;;14.50;6.50;;;13.80;1.00;;;;;;4969905;28;20452;-54
2023/05/01 07:39:38;;;;;;;11.03;5.80;;;13.80;1.00;;;;;;4969629;28;20865;-54
2023/05/01 07:42:03;;;;;;;11.90;6.00;;;13.90;1.00;;;;;;4970088;28;20478;-54
2023/05/01 07:44:29;;;;;;;14.55;6.10;;;14.10;1.00;;;;;;4959129;28;20868;-54
2023/05/01 07:46:54;;;;;;;11.35;5.80;;;14.30;1.00;;;;;;4964837;28;20559;-54
2023/05/01 07:49:20;;;;;;;11.40;5.70;;;14.50;1.00;;;;;;4968722;28;20467;-57
2023/05/01 07:51:46;;;;;;;13.13;6.10;;;14.70;1.00;;;;;;4970358;28;20964;-59
2023/05/01 07:54:13;;;;;;;11.60;6.10;;;14.80;1.00;;;;;;4970301;28;20822;-56
2023/05/01 07:56:39;;;;;;;10.57;5.60;;;14.80;1.00;;;;;;4955322;28;20615;-57
2023/05/01 07:59:05;;;;;;;12.00;6.38;;;14.80;1.00;;;;;;4952365;28;20948;-56
2023/05/01 08:01:32;;;;;;;11.43;5.87;;;15.00;1.00;;;;;;4969885;28;20389;-56
2023/05/01 08:03:58;;;;;;;11.93;6.00;;;15.00;1.00;;;;;;4970264;28;20454;-56
2023/05/01 08:06:24;;;;;;;12.50;6.15;;;15.10;1.00;;;;;;4969475;28;20494;-57
2023/05/01 08:08:49;;;;;;;11.43;5.82;;;15.10;1.00;;;;;;4971484;28;20405;-56
2023/05/01 08:11:15;;;;;;;12.77;5.93;;;14.90;1.00;;;;;;4960643;28;20786;-57
2023/05/01 08:13:40;;;;;;;12.55;5.90;;;14.50;1.00;;;;;;4965879;28;20394;-56
2023/05/01 08:16:06;;;;;;;10.77;5.80;;;14.40;1.00;;;;;;4966352;28;20463;-57
2023/05/01 08:18:32;;;;;;;11.20;5.77;;;14.20;1.00;;;;;;4972665;28;20424;-57
2023/05/01 08:20:57;;;;;;;14.48;5.97;;;14.20;1.00;;;;;;4971293;28;20393;-57
2023/05/01 08:23:24;;;;;;;14.00;6.03;;;14.20;1.00;;;;;;4972882;28;20787;-55
2023/05/01 08:25:50;;;;;;;11.82;5.72;;;14.20;1.00;;;;;;4973347;28;20487;-57
2023/05/01 08:28:20;;;;;;;14.13;6.70;;;14.20;1.00;;;;;;4972317;28;20424;-57
2023/05/01 08:30:47;;;;;;;13.57;6.32;;;14.20;1.00;;;;;;4971882;28;20411;-58
2023/05/01 08:33:12;;;;;;;12.70;6.60;;;14.30;1.00;;;;;;4971491;28;20476;-57
2023/05/01 08:35:38;;;;;;;12.10;6.37;;;14.20;1.00;;;;;;4972523;28;20455;-57
2023/05/01 08:38:03;;;;;;;13.98;6.90;;;14.40;1.00;;;;;;4972802;28;20419;-57
2023/05/01 08:40:32;;;;;;;13.63;7.20;;;14.60;1.00;;;;;;4962233;28;20404;-55
2023/05/01 08:43:00;;;;;;;11.93;6.30;;;14.80;1.00;;;;;;4972658;28;20747;-55
2023/05/01 08:45:27;;;;;;;15.40;6.90;;;15.20;1.00;;;;;;4971995;28;20412;-55
2023/05/01 08:47:54;;;;;;;11.63;6.80;;;15.60;1.00;;;;;;4972670;28;20446;-55
2023/05/01 08:50:21;;;;;;;13.00;7.10;;;16.00;1.00;;;;;;4972737;28;20815;-55
2023/05/01 08:52:49;;;;;;;12.73;6.70;;;16.00;1.00;;;;;;4973222;28;20423;-55
2023/05/01 08:55:15;;;;;;;12.77;6.60;;;16.50;1.00;;;;;;4972722;28;20400;-55
2023/05/01 08:57:48;;;;;;;13.27;6.10;;;16.90;1.00;;;;;;4971443;28;20497;-55
2023/05/01 09:00:24;;;;;;;12.43;6.90;;;17.20;1.00;;;;;;4970499;28;20408;-55
2023/05/01 09:02:51;;;;;;;12.55;6.20;;;17.20;1.00;;;;;;4973337;28;20479;-55
2023/05/01 09:05:18;;;;;;;13.30;6.80;;;17.00;1.00;;;;;;4959384;28;20437;-56
2023/05/01 09:07:45;;;;;;;12.70;7.20;;;17.30;1.00;;;;;;4962480;28;20403;-55
2023/05/01 09:10:12;;;;;;;12.32;6.80;;;17.30;1.00;;;;;;4968809;28;20425;-58
2023/05/01 09:12:38;;;;;;;12.63;7.00;;;17.70;1.00;;;;;;4970784;28;21335;-58
2023/05/01 09:15:06;;;;;;;13.60;7.15;;;17.90;99.90;;;;;;4945140;29;20820;-58
2023/05/01 09:17:32;;;;;;;11.67;6.80;;;18.80;99.90;;;;;;4961117;28;20420;-58
2023/05/01 09:20:03;;;;;;;12.90;6.75;;;19.70;99.90;;;;;;4965279;28;20452;-58
2023/05/01 09:22:29;;;;;;;12.27;7.25;;;20.20;99.90;;;;;;4960775;28;20891;-56
2023/05/01 09:24:55;;;;;;;12.03;6.40;;;20.10;99.90;;;;;;4964450;28;20396;-56
2023/05/01 09:27:21;;;;;;;12.38;6.50;;;19.60;99.90;;;;;;4971888;28;20486;-55
2023/05/01 09:29:47;;;;;;;12.93;7.32;;;18.20;99.90;;;;;;4970827;28;20441;-55
2023/05/01 09:32:19;;;;;;;15.47;7.77;;;17.70;99.90;;;;;;4972121;28;20876;-55
2023/05/01 09:34:45;;;;;;;14.70;7.72;;;17.30;99.90;;;;;;4971445;28;20904;-55
2023/05/01 09:37:32;;;;;;;13.75;6.85;;;17.10;99.90;;;;;;4970564;28;20424;-58
2023/05/01 09:40:07;;;;;;;12.48;6.40;;;17.30;99.90;;;;;;4971982;28;20513;-58
2023/05/01 09:42:36;;;;;;;14.30;7.30;;;17.70;99.90;;;;;;4971514;28;20407;-58
2023/05/01 09:45:10;;;;;;;12.13;6.32;;;18.10;99.90;;;;;;4972453;28;20392;-58
2023/05/01 09:47:36;;;;;;;13.60;6.93;;;18.80;99.90;;;;;;4971311;28;20395;-58
2023/05/01 09:50:03;;;;;;;13.55;6.93;;;19.20;99.90;;;;;;4972031;28;21005;-58
2023/05/01 09:52:31;;;;;;;13.07;6.90;;;19.60;99.90;;;;;;4970682;28;20397;-58
2023/05/01 09:55:15;;;;;;;13.30;7.00;;;20.00;99.90;;;;;;4971875;28;20407;-56
2023/05/01 09:57:42;;;;;;;13.20;7.25;;;20.40;99.90;;;;;;4970776;28;20432;-56
2023/05/01 10:00:09;;;;;;;15.18;7.50;;;20.50;99.90;;;;;;4969932;28;20408;-56
2023/05/01 10:02:35;;;;;;;13.50;6.90;;;20.00;99.90;;;;;;4971299;28;20400;-56
2023/05/01 10:05:01;;;;;;;13.47;6.73;;;19.90;99.90;;;;;;4954897;28;20393;-56
2023/05/01 10:07:28;;;;;;;13.82;6.60;;;19.80;99.90;;;;;;4959697;28;20400;-58
2023/05/01 10:09:54;;;;;;;12.68;6.68;;;19.50;99.90;;;;;;4971707;28;20926;-58
2023/05/01 10:12:28;;;;;;;12.60;6.93;;;18.80;99.90;;;;;;4962767;28;20739;-56
2023/05/01 10:14:58;;;;;;;12.38;6.70;;;18.70;99.90;;;;;;4971305;28;20404;-56
2023/05/01 10:17:23;;;;;;;11.93;6.72;;;18.80;99.90;;;;;;4970970;28;20422;-56
2023/05/01 10:19:58;;;;;;;11.87;6.70;;;18.80;99.90;;;;;;4972012;28;20395;-56
2023/05/01 10:22:25;;;;;;;13.90;6.70;;;19.00;99.90;;;;;;4971307;28;20380;-57
2023/05/01 10:24:51;;;;;;;12.75;6.25;;;19.20;99.90;;;;;;4971818;28;20443;-56
2023/05/01 10:27:18;;;;;;;12.00;5.80;;;19.30;99.90;;;;;;4952306;29;20388;-56
2023/05/01 10:29:46;;;;;;;10.88;5.93;;;18.90;99.90;;;;;;4951371;28;20954;-56
2023/05/01 10:32:13;;;;;;;11.60;5.80;;;18.70;99.90;;;;;;4952693;28;20398;-56
2023/05/01 10:34:44;;;;;;;12.60;6.72;;;18.70;99.90;;;;;;4970874;28;20392;-56
2023/05/01 10:37:18;;;;;;;11.52;6.15;;;18.90;99.90;;;;;;4970442;28;20460;-56
2023/05/01 10:39:44;;;;;;;12.52;7.05;;;19.30;99.90;;;;;;4967919;28;20412;-56
2023/05/01 10:42:12;;;;;;;10.20;6.20;;;19.20;99.90;;;;;;4967274;28;20424;-56
2023/05/01 10:44:39;;;;;;;11.20;5.80;;;19.20;99.90;;;;;;4965533;28;20470;-56
2023/05/01 10:47:43;;;;;;;10.45;5.65;;;19.30;99.90;;;;;;4969675;28;20412;-56
2023/05/01 10:50:10;;;;;;;10.07;5.88;;;19.20;99.90;;;;;;4970227;28;20499;-56
2023/05/01 10:53:16;;;;;;;13.20;6.07;;;19.40;99.90;;;;;;4969796;28;20411;-56
2023/05/01 10:55:44;;;;;;;11.98;6.03;;;19.40;99.90;;;;;;4968845;28;20392;-56
2023/05/01 10:58:12;;;;;;;15.15;5.90;;;19.20;99.90;;;;;;4970888;28;20455;-56
2023/05/01 11:00:38;;;;;;;12.70;6.60;;;19.60;99.90;;;;;;4964855;28;20443;-56
2023/05/01 11:03:23;;;;;;;13.33;6.40;;;19.70;99.90;;;;;;4968324;28;20447;-56
2023/05/01 11:06:03;;;;;;;10.45;5.22;;;20.00;99.90;;;;;;4970186;28;20414;-56
2023/05/01 11:08:37;;;;;;;10.65;6.18;;;19.80;99.90;;;;;;4970099;28;20412;-56
2023/05/01 11:11:21;;;;;;;14.30;6.70;;;20.40;99.90;;;;;;4970111;28;20414;-56
2023/05/01 11:14:03;;;;;;;13.35;6.85;;;20.60;99.90;;;;;;4969725;28;20400;-56
2023/05/01 11:16:38;;;;;;;11.68;5.72;;;20.60;99.90;;;;;;4969104;28;20416;-56
2023/05/01 11:19:08;;;;;;;13.52;6.10;;;20.10;99.90;;;;;;4969838;28;20475;-56
2023/05/01 11:21:35;;;;;;;13.52;6.22;;;20.10;99.90;;;;;;4969962;28;20392;-56
2023/05/01 11:24:08;;;;;;;12.27;6.53;;;19.80;99.90;;;;;;4968368;28;20407;-56
2023/05/01 11:26:41;;;;;;;10.90;6.00;;;19.70;99.90;;;;;;4966319;28;20885;-58
2023/05/01 11:29:09;;;;;;;11.65;6.18;;;19.80;99.90;;;;;;4969080;28;20818;-58
2023/05/01 11:31:35;;;;;;;13.13;6.23;;;19.80;99.90;;;;;;4967542;28;20487;-58
2023/05/01 11:34:01;;;;;;;14.25;6.70;;;19.90;99.90;;;;;;4969974;28;20412;-58
2023/05/01 11:36:30;;;;;;;14.43;6.40;;;19.70;99.90;;;;;;4969497;28;20906;-57
2023/05/01 11:38:58;;;;;;;10.70;5.65;;;19.30;99.90;;;;;;4968046;28;20411;-56
2023/05/01 11:41:27;;;;;;;11.77;6.10;;;19.20;99.90;;;;;;4965970;28;21196;-56
2023/05/01 11:43:55;;;;;;;12.50;6.50;;;19.20;99.90;;;;;;4967819;28;20467;-56
2023/05/01 11:46:32;;;;;;;12.68;6.80;;;19.50;99.90;;;;;;4970156;28;20395;-56
2023/05/01 11:49:00;;;;;;;10.52;5.95;;;19.30;99.90;;;;;;4966809;28;20408;-56
2023/05/01 11:51:27;;;;;;;10.75;5.85;;;19.30;99.90;;;;;;4969366;28;20420;-56
2023/05/01 11:54:06;;;;;;;10.87;6.30;;;19.30;99.90;;;;;;4958458;28;20960;-56
2023/05/01 11:56:33;;;;;;;10.60;5.95;;;19.30;99.90;;;;;;4969702;28;20727;-56
2023/05/01 11:59:15;;;;;;;13.25;6.75;;;19.30;99.90;;;;;;4963554;28;20429;-56
2023/05/01 12:01:43;;;;;;;13.32;6.60;;;19.40;99.90;;;;;;4967790;28;20392;-56
2023/05/01 12:04:10;;;;;;;11.45;6.57;;;19.60;99.90;;;;;;4969434;28;20811;-56
2023/05/01 12:06:45;;;;;;;11.65;6.22;;;19.40;99.90;;;;;;4967768;28;20420;-56
2023/05/01 12:09:23;;;;;;;12.30;6.47;;;19.70;99.90;;;;;;4970160;28;20870;-56
2023/05/01 12:11:50;;;;;;;12.18;6.90;;;19.90;99.90;;;;;;4969187;28;20743;-56
2023/05/01 12:14:17;;;;;;;11.33;6.57;;;20.00;99.90;;;;;;4958096;28;20453;-56
2023/05/01 12:16:43;;;;;;;12.17;6.20;;;19.90;99.90;;;;;;4969001;28;20420;-56
2023/05/01 12:19:12;;;;;;;12.00;6.40;;;19.80;99.90;;;;;;4969551;28;20408;-57
2023/05/01 12:21:38;;;;;;;10.90;5.90;;;19.90;99.90;;;;;;4968243;28;20451;-57
2023/05/01 12:24:16;;;;;;;11.60;6.37;;;20.20;99.90;;;;;;4967918;28;20419;-57
2023/05/01 12:26:43;;;;;;;11.60;6.15;;;20.60;99.90;;;;;;4968521;28;20479;-55
2023/05/01 12:29:10;;;;;;;12.53;7.07;;;20.70;99.90;;;;;;4969861;28;20419;-54
2023/05/01 12:31:44;;;;;;;13.77;7.00;;;20.50;99.90;;;;;;4968753;28;20818;-55
2023/05/01 12:34:10;;;;;;;10.68;6.20;;;20.20;99.90;;;;;;4969998;28;20389;-55
2023/05/01 12:36:36;;;;;;;11.65;6.35;;;20.50;99.90;;;;;;4969222;28;20871;-55
2023/05/01 12:39:11;;;;;;;12.30;6.50;;;20.60;99.90;;;;;;4969996;28;20400;-56
2023/05/01 12:41:44;;;;;;;11.50;6.30;;;20.20;99.90;;;;;;4969379;28;20388;-55
2023/05/01 12:44:39;;;;;;;12.70;6.10;;;20.20;99.90;;;;;;4969842;28;20483;-54
2023/05/01 12:47:07;;;;;;;11.82;5.82;;;20.00;99.90;;;;;;4951481;28;20404;-54